Terminal Aerodrome Forecast
Issued by NWS

Home | Current Version | Previous Version | Graphics & Text | Print | Product List | Glossary On
Versions: 1 2 3 4 5 6 7 8 9 10 11 12 13 14 15 16 17 18
000
FTUS43 KGRB 062111 AAB
TAFAUW
TAF AMD
KAUW 062111Z 0621/0718 24009KT 5SM -SHRA SCT007 OVC015
      TEMPO 0621/0622 3SM SHRA BR
     FM062200 34012KT 5SM SHRA BR BKN007 OVC040
     FM070200 34009KT 6SM -SHRA BR BKN015
     FM070500 33008KT P6SM SCT008 OVC015
     FM071400 35010KT P6SM SCT025=

USA.gov is the U.S. government's official web portal to all federal, state and local government web resources and services.